sensor_id;sensor_type;location;lat;lon;timestamp;P1;durP1;ratioP1;P2;durP2;ratioP2
31128;SDS011;17777;48.770;8.944;2024-01-30T00:02:06;7.47;;;4.60;;
31128;SDS011;17777;48.770;8.944;2024-01-30T00:04:32;8.07;;;4.72;;
31128;SDS011;17777;48.770;8.944;2024-01-30T00:06:57;6.50;;;4.40;;
31128;SDS011;17777;48.770;8.944;2024-01-30T00:09:23;9.57;;;4.68;;
31128;SDS011;17777;48.770;8.944;2024-01-30T00:11:49;6.68;;;4.50;;
31128;SDS011;17777;48.770;8.944;2024-01-30T00:14:15;5.75;;;3.97;;
31128;SDS011;17777;48.770;8.944;2024-01-30T00:16:40;6.63;;;4.03;;
31128;SDS011;17777;48.770;8.944;2024-01-30T00:19:06;6.18;;;4.15;;
31128;SDS011;17777;48.770;8.944;2024-01-30T00:21:33;6.78;;;4.57;;
31128;SDS011;17777;48.770;8.944;2024-01-30T00:23:59;6.80;;;4.50;;
31128;SDS011;17777;48.770;8.944;2024-01-30T00:26:25;9.20;;;4.97;;
31128;SDS011;17777;48.770;8.944;2024-01-30T00:28:50;5.25;;;3.85;;
31128;SDS011;17777;48.770;8.944;2024-01-30T00:31:16;7.00;;;4.53;;
31128;SDS011;17777;48.770;8.944;2024-01-30T00:33:42;7.18;;;4.25;;
31128;SDS011;17777;48.770;8.944;2024-01-30T00:36:08;6.63;;;4.35;;
31128;SDS011;17777;48.770;8.944;2024-01-30T00:38:36;6.55;;;4.57;;
31128;SDS011;17777;48.770;8.944;2024-01-30T00:41:02;7.68;;;4.88;;
31128;SDS011;17777;48.770;8.944;2024-01-30T00:43:28;6.30;;;4.47;;
31128;SDS011;17777;48.770;8.944;2024-01-30T00:45:54;8.85;;;5.05;;
31128;SDS011;17777;48.770;8.944;2024-01-30T00:48:20;6.47;;;4.28;;
31128;SDS011;17777;48.770;8.944;2024-01-30T00:50:46;6.38;;;4.35;;
31128;SDS011;17777;48.770;8.944;2024-01-30T00:53:12;5.32;;;3.83;;
31128;SDS011;17777;48.770;8.944;2024-01-30T00:55:38;6.43;;;4.28;;
31128;SDS011;17777;48.770;8.944;2024-01-30T00:58:04;7.07;;;4.45;;
31128;SDS011;17777;48.770;8.944;2024-01-30T01:00:30;6.18;;;3.83;;
31128;SDS011;17777;48.770;8.944;2024-01-30T01:02:57;6.03;;;4.28;;
31128;SDS011;17777;48.770;8.944;2024-01-30T01:05:24;6.65;;;4.30;;
31128;SDS011;17777;48.770;8.944;2024-01-30T01:07:50;8.70;;;3.97;;
31128;SDS011;17777;48.770;8.944;2024-01-30T01:10:16;6.03;;;4.20;;
31128;SDS011;17777;48.770;8.944;2024-01-30T01:12:43;7.03;;;4.45;;
31128;SDS011;17777;48.770;8.944;2024-01-30T01:15:10;5.22;;;4.10;;
31128;SDS011;17777;48.770;8.944;2024-01-30T01:17:36;6.22;;;4.40;;
31128;SDS011;17777;48.770;8.944;2024-01-30T01:20:03;6.30;;;4.45;;
31128;SDS011;17777;48.770;8.944;2024-01-30T01:22:31;6.60;;;4.28;;
31128;SDS011;17777;48.770;8.944;2024-01-30T01:24:58;8.00;;;4.22;;
31128;SDS011;17777;48.770;8.944;2024-01-30T01:27:25;6.07;;;4.55;;
31128;SDS011;17777;48.770;8.944;2024-01-30T01:29:51;8.55;;;4.78;;
31128;SDS011;17777;48.770;8.944;2024-01-30T01:32:18;7.72;;;4.28;;
31128;SDS011;17777;48.770;8.944;2024-01-30T01:34:43;5.78;;;4.20;;
31128;SDS011;17777;48.770;8.944;2024-01-30T01:37:09;6.32;;;4.15;;
31128;SDS011;17777;48.770;8.944;2024-01-30T01:39:35;6.32;;;3.92;;
31128;SDS011;17777;48.770;8.944;2024-01-30T01:42:01;7.40;;;4.22;;
31128;SDS011;17777;48.770;8.944;2024-01-30T01:44:27;5.78;;;3.90;;
31128;SDS011;17777;48.770;8.944;2024-01-30T01:46:54;7.60;;;4.78;;
31128;SDS011;17777;48.770;8.944;2024-01-30T01:49:20;5.22;;;3.55;;
31128;SDS011;17777;48.770;8.944;2024-01-30T01:51:50;8.00;;;4.50;;
31128;SDS011;17777;48.770;8.944;2024-01-30T01:54:19;6.25;;;3.78;;
31128;SDS011;17777;48.770;8.944;2024-01-30T01:56:45;6.82;;;4.22;;
31128;SDS011;17777;48.770;8.944;2024-01-30T01:59:11;4.22;;;3.40;;
31128;SDS011;17777;48.770;8.944;2024-01-30T02:01:38;11.65;;;4.90;;
31128;SDS011;17777;48.770;8.944;2024-01-30T02:04:07;5.65;;;3.83;;
31128;SDS011;17777;48.770;8.944;2024-01-30T02:06:33;8.38;;;4.68;;
31128;SDS011;17777;48.770;8.944;2024-01-30T02:09:00;7.78;;;4.95;;
31128;SDS011;17777;48.770;8.944;2024-01-30T02:11:26;8.70;;;5.05;;
31128;SDS011;17777;48.770;8.944;2024-01-30T02:13:52;6.95;;;4.43;;
31128;SDS011;17777;48.770;8.944;2024-01-30T02:22:10;8.10;;;4.40;;
31128;SDS011;17777;48.770;8.944;2024-01-30T02:24:35;9.00;;;4.45;;
31128;SDS011;17777;48.770;8.944;2024-01-30T02:27:01;8.40;;;4.93;;
31128;SDS011;17777;48.770;8.944;2024-01-30T02:29:27;6.95;;;4.28;;
31128;SDS011;17777;48.770;8.944;2024-01-30T02:31:53;8.40;;;4.60;;
31128;SDS011;17777;48.770;8.944;2024-01-30T02:34:19;7.45;;;4.38;;
31128;SDS011;17777;48.770;8.944;2024-01-30T02:39:11;6.40;;;3.75;;
31128;SDS011;17777;48.770;8.944;2024-01-30T02:41:37;5.75;;;3.95;;
31128;SDS011;17777;48.770;8.944;2024-01-30T02:44:05;4.45;;;3.40;;
31128;SDS011;17777;48.770;8.944;2024-01-30T02:46:31;5.22;;;3.63;;
31128;SDS011;17777;48.770;8.944;2024-01-30T02:48:57;11.10;;;3.90;;
31128;SDS011;17777;48.770;8.944;2024-01-30T02:51:22;4.38;;;3.60;;
31128;SDS011;17777;48.770;8.944;2024-01-30T02:53:48;6.88;;;3.78;;
31128;SDS011;17777;48.770;8.944;2024-01-30T02:56:14;6.13;;;4.07;;
31128;SDS011;17777;48.770;8.944;2024-01-30T02:58:40;4.90;;;3.67;;
31128;SDS011;17777;48.770;8.944;2024-01-30T03:01:06;6.10;;;4.07;;
31128;SDS011;17777;48.770;8.944;2024-01-30T03:03:32;4.97;;;3.70;;
31128;SDS011;17777;48.770;8.944;2024-01-30T03:06:00;6.35;;;3.80;;
31128;SDS011;17777;48.770;8.944;2024-01-30T03:08:27;4.38;;;3.47;;
31128;SDS011;17777;48.770;8.944;2024-01-30T03:10:53;5.40;;;3.75;;
31128;SDS011;17777;48.770;8.944;2024-01-30T03:13:19;5.28;;;3.70;;
31128;SDS011;17777;48.770;8.944;2024-01-30T03:15:44;6.20;;;3.80;;
31128;SDS011;17777;48.770;8.944;2024-01-30T03:18:10;5.80;;;3.67;;
31128;SDS011;17777;48.770;8.944;2024-01-30T03:20:36;5.38;;;3.50;;
31128;SDS011;17777;48.770;8.944;2024-01-30T03:23:02;4.43;;;3.15;;
31128;SDS011;17777;48.770;8.944;2024-01-30T03:25:28;5.82;;;3.58;;
31128;SDS011;17777;48.770;8.944;2024-01-30T03:27:54;5.93;;;3.60;;
31128;SDS011;17777;48.770;8.944;2024-01-30T03:30:19;5.82;;;3.65;;
31128;SDS011;17777;48.770;8.944;2024-01-30T03:32:45;5.45;;;3.60;;
31128;SDS011;17777;48.770;8.944;2024-01-30T03:35:11;4.85;;;3.33;;
31128;SDS011;17777;48.770;8.944;2024-01-30T03:37:37;6.32;;;3.80;;
31128;SDS011;17777;48.770;8.944;2024-01-30T03:40:03;4.65;;;3.50;;
31128;SDS011;17777;48.770;8.944;2024-01-30T03:42:30;5.07;;;3.45;;
31128;SDS011;17777;48.770;8.944;2024-01-30T03:44:56;4.50;;;3.50;;
31128;SDS011;17777;48.770;8.944;2024-01-30T03:47:22;5.22;;;3.58;;
31128;SDS011;17777;48.770;8.944;2024-01-30T03:49:47;5.88;;;3.88;;
31128;SDS011;17777;48.770;8.944;2024-01-30T03:52:13;5.32;;;3.45;;
31128;SDS011;17777;48.770;8.944;2024-01-30T03:54:39;5.03;;;3.60;;
31128;SDS011;17777;48.770;8.944;2024-01-30T03:57:05;5.47;;;3.47;;
31128;SDS011;17777;48.770;8.944;2024-01-30T03:59:30;3.85;;;3.08;;
31128;SDS011;17777;48.770;8.944;2024-01-30T04:01:56;5.35;;;3.75;;
31128;SDS011;17777;48.770;8.944;2024-01-30T04:04:22;5.90;;;3.10;;
31128;SDS011;17777;48.770;8.944;2024-01-30T04:06:48;6.05;;;3.75;;
31128;SDS011;17777;48.770;8.944;2024-01-30T04:09:14;4.53;;;3.47;;
31128;SDS011;17777;48.770;8.944;2024-01-30T04:11:40;5.65;;;3.65;;
31128;SDS011;17777;48.770;8.944;2024-01-30T04:14:07;4.18;;;3.40;;
31128;SDS011;17777;48.770;8.944;2024-01-30T04:16:33;6.97;;;3.47;;
31128;SDS011;17777;48.770;8.944;2024-01-30T04:18:59;4.95;;;3.50;;
31128;SDS011;17777;48.770;8.944;2024-01-30T04:21:25;4.97;;;3.50;;
31128;SDS011;17777;48.770;8.944;2024-01-30T04:23:51;5.05;;;3.20;;
31128;SDS011;17777;48.770;8.944;2024-01-30T04:26:17;5.50;;;3.75;;
31128;SDS011;17777;48.770;8.944;2024-01-30T04:28:44;4.65;;;3.40;;
31128;SDS011;17777;48.770;8.944;2024-01-30T04:31:10;4.68;;;3.15;;
31128;SDS011;17777;48.770;8.944;2024-01-30T04:33:36;6.43;;;3.83;;
31128;SDS011;17777;48.770;8.944;2024-01-30T04:36:02;4.30;;;3.33;;
31128;SDS011;17777;48.770;8.944;2024-01-30T04:38:34;4.20;;;3.28;;
31128;SDS011;17777;48.770;8.944;2024-01-30T04:40:59;5.13;;;3.70;;
31128;SDS011;17777;48.770;8.944;2024-01-30T04:43:25;3.70;;;2.95;;
31128;SDS011;17777;48.770;8.944;2024-01-30T04:45:51;4.97;;;3.30;;
31128;SDS011;17777;48.770;8.944;2024-01-30T04:48:17;6.47;;;4.20;;
31128;SDS011;17777;48.770;8.944;2024-01-30T04:50:43;6.35;;;3.97;;
31128;SDS011;17777;48.770;8.944;2024-01-30T04:53:08;4.82;;;3.58;;
31128;SDS011;17777;48.770;8.944;2024-01-30T04:55:34;5.18;;;3.63;;
31128;SDS011;17777;48.770;8.944;2024-01-30T04:58:01;5.57;;;3.47;;
31128;SDS011;17777;48.770;8.944;2024-01-30T05:00:27;5.00;;;3.38;;
31128;SDS011;17777;48.770;8.944;2024-01-30T05:02:54;4.22;;;3.35;;
31128;SDS011;17777;48.770;8.944;2024-01-30T05:05:20;5.03;;;3.33;;
31128;SDS011;17777;48.770;8.944;2024-01-30T05:07:46;5.15;;;3.45;;
31128;SDS011;17777;48.770;8.944;2024-01-30T05:10:13;3.97;;;2.88;;
31128;SDS011;17777;48.770;8.944;2024-01-30T05:12:39;4.13;;;2.92;;
31128;SDS011;17777;48.770;8.944;2024-01-30T05:15:05;3.88;;;3.25;;
31128;SDS011;17777;48.770;8.944;2024-01-30T05:17:32;5.57;;;3.55;;
31128;SDS011;17777;48.770;8.944;2024-01-30T05:19:58;5.35;;;3.60;;
31128;SDS011;17777;48.770;8.944;2024-01-30T05:22:24;6.78;;;4.47;;
31128;SDS011;17777;48.770;8.944;2024-01-30T05:24:50;5.22;;;3.88;;
31128;SDS011;17777;48.770;8.944;2024-01-30T05:27:15;5.35;;;3.58;;
31128;SDS011;17777;48.770;8.944;2024-01-30T05:29:41;5.68;;;3.88;;
31128;SDS011;17777;48.770;8.944;2024-01-30T05:32:07;4.90;;;3.72;;
31128;SDS011;17777;48.770;8.944;2024-01-30T05:34:33;4.57;;;3.22;;
31128;SDS011;17777;48.770;8.944;2024-01-30T05:37:01;5.13;;;3.10;;
31128;SDS011;17777;48.770;8.944;2024-01-30T05:39:27;4.50;;;3.55;;
31128;SDS011;17777;48.770;8.944;2024-01-30T05:41:52;4.57;;;3.33;;
31128;SDS011;17777;48.770;8.944;2024-01-30T05:44:18;5.00;;;3.10;;
31128;SDS011;17777;48.770;8.944;2024-01-30T05:46:44;4.35;;;3.38;;
31128;SDS011;17777;48.770;8.944;2024-01-30T05:49:10;5.93;;;3.55;;
31128;SDS011;17777;48.770;8.944;2024-01-30T05:51:36;4.90;;;3.45;;
31128;SDS011;17777;48.770;8.944;2024-01-30T05:54:01;5.63;;;3.40;;
31128;SDS011;17777;48.770;8.944;2024-01-30T05:56:28;6.00;;;3.92;;
31128;SDS011;17777;48.770;8.944;2024-01-30T05:58:54;4.30;;;3.13;;
31128;SDS011;17777;48.770;8.944;2024-01-30T06:01:20;5.72;;;3.38;;
31128;SDS011;17777;48.770;8.944;2024-01-30T06:03:46;4.45;;;3.35;;
31128;SDS011;17777;48.770;8.944;2024-01-30T06:06:12;4.45;;;3.42;;
31128;SDS011;17777;48.770;8.944;2024-01-30T06:08:37;6.45;;;3.83;;
31128;SDS011;17777;48.770;8.944;2024-01-30T06:11:03;7.65;;;4.32;;
31128;SDS011;17777;48.770;8.944;2024-01-30T06:13:29;5.80;;;3.85;;
31128;SDS011;17777;48.770;8.944;2024-01-30T06:15:57;3.30;;;2.85;;
31128;SDS011;17777;48.770;8.944;2024-01-30T06:18:23;5.30;;;3.22;;
31128;SDS011;17777;48.770;8.944;2024-01-30T06:20:49;4.65;;;3.13;;
31128;SDS011;17777;48.770;8.944;2024-01-30T06:23:15;4.38;;;3.28;;
31128;SDS011;17777;48.770;8.944;2024-01-30T06:25:40;5.15;;;3.40;;
31128;SDS011;17777;48.770;8.944;2024-01-30T06:28:06;5.05;;;3.22;;
31128;SDS011;17777;48.770;8.944;2024-01-30T06:30:32;6.03;;;3.50;;
31128;SDS011;17777;48.770;8.944;2024-01-30T06:32:58;5.47;;;3.45;;
31128;SDS011;17777;48.770;8.944;2024-01-30T06:35:24;4.90;;;3.38;;
31128;SDS011;17777;48.770;8.944;2024-01-30T06:37:49;5.95;;;3.95;;
31128;SDS011;17777;48.770;8.944;2024-01-30T06:40:15;5.88;;;4.15;;
31128;SDS011;17777;48.770;8.944;2024-01-30T06:42:41;6.50;;;4.50;;
31128;SDS011;17777;48.770;8.944;2024-01-30T06:45:07;8.20;;;4.53;;
31128;SDS011;17777;48.770;8.944;2024-01-30T06:47:33;6.68;;;4.28;;
31128;SDS011;17777;48.770;8.944;2024-01-30T06:49:59;7.10;;;4.70;;
31128;SDS011;17777;48.770;8.944;2024-01-30T06:52:24;6.68;;;4.13;;
31128;SDS011;17777;48.770;8.944;2024-01-30T06:54:50;6.57;;;4.43;;
31128;SDS011;17777;48.770;8.944;2024-01-30T06:57:16;5.70;;;3.88;;
31128;SDS011;17777;48.770;8.944;2024-01-30T06:59:42;6.47;;;3.80;;
31128;SDS011;17777;48.770;8.944;2024-01-30T07:02:11;9.15;;;4.32;;
31128;SDS011;17777;48.770;8.944;2024-01-30T07:04:37;7.78;;;4.53;;
31128;SDS011;17777;48.770;8.944;2024-01-30T07:07:04;6.57;;;4.70;;
31128;SDS011;17777;48.770;8.944;2024-01-30T07:09:30;7.22;;;4.55;;
31128;SDS011;17777;48.770;8.944;2024-01-30T07:11:56;5.43;;;3.53;;
31128;SDS011;17777;48.770;8.944;2024-01-30T07:14:25;6.03;;;4.10;;
31128;SDS011;17777;48.770;8.944;2024-01-30T07:16:50;6.40;;;4.28;;
31128;SDS011;17777;48.770;8.944;2024-01-30T07:19:16;7.28;;;4.85;;
31128;SDS011;17777;48.770;8.944;2024-01-30T07:21:42;8.65;;;4.72;;
31128;SDS011;17777;48.770;8.944;2024-01-30T07:24:09;6.80;;;4.63;;
31128;SDS011;17777;48.770;8.944;2024-01-30T07:26:34;7.53;;;4.68;;
31128;SDS011;17777;48.770;8.944;2024-01-30T07:29:00;7.15;;;4.78;;
31128;SDS011;17777;48.770;8.944;2024-01-30T07:31:26;7.47;;;4.65;;
31128;SDS011;17777;48.770;8.944;2024-01-30T07:33:52;7.38;;;5.00;;
31128;SDS011;17777;48.770;8.944;2024-01-30T07:36:19;5.10;;;4.03;;
31128;SDS011;17777;48.770;8.944;2024-01-30T07:38:45;7.05;;;4.03;;
31128;SDS011;17777;48.770;8.944;2024-01-30T07:41:11;5.50;;;3.97;;
31128;SDS011;17777;48.770;8.944;2024-01-30T07:43:38;5.07;;;3.83;;
31128;SDS011;17777;48.770;8.944;2024-01-30T07:46:04;5.75;;;4.15;;
31128;SDS011;17777;48.770;8.944;2024-01-30T07:48:31;6.80;;;4.13;;
31128;SDS011;17777;48.770;8.944;2024-01-30T07:50:59;6.40;;;4.13;;
31128;SDS011;17777;48.770;8.944;2024-01-30T07:53:25;8.98;;;4.85;;
31128;SDS011;17777;48.770;8.944;2024-01-30T07:55:51;6.53;;;4.85;;
31128;SDS011;17777;48.770;8.944;2024-01-30T07:58:17;9.13;;;5.35;;
31128;SDS011;17777;48.770;8.944;2024-01-30T08:00:44;7.53;;;5.60;;
31128;SDS011;17777;48.770;8.944;2024-01-30T08:03:10;9.05;;;5.50;;
31128;SDS011;17777;48.770;8.944;2024-01-30T08:05:36;11.50;;;6.07;;
31128;SDS011;17777;48.770;8.944;2024-01-30T08:08:04;8.32;;;5.50;;
31128;SDS011;17777;48.770;8.944;2024-01-30T08:10:30;7.05;;;5.20;;
31128;SDS011;17777;48.770;8.944;2024-01-30T08:12:55;9.23;;;5.22;;
31128;SDS011;17777;48.770;8.944;2024-01-30T08:15:21;9.00;;;5.15;;
31128;SDS011;17777;48.770;8.944;2024-01-30T08:17:47;7.70;;;4.80;;
31128;SDS011;17777;48.770;8.944;2024-01-30T08:20:13;5.75;;;4.30;;
31128;SDS011;17777;48.770;8.944;2024-01-30T08:22:39;8.55;;;4.90;;
31128;SDS011;17777;48.770;8.944;2024-01-30T08:25:08;7.93;;;5.07;;
31128;SDS011;17777;48.770;8.944;2024-01-30T08:27:35;7.00;;;4.82;;
31128;SDS011;17777;48.770;8.944;2024-01-30T08:30:03;8.32;;;4.55;;
31128;SDS011;17777;48.770;8.944;2024-01-30T08:32:31;5.57;;;4.00;;
31128;SDS011;17777;48.770;8.944;2024-01-30T08:34:57;7.05;;;4.50;;
31128;SDS011;17777;48.770;8.944;2024-01-30T08:37:23;6.63;;;4.25;;
31128;SDS011;17777;48.770;8.944;2024-01-30T08:39:49;6.40;;;4.13;;
31128;SDS011;17777;48.770;8.944;2024-01-30T08:42:15;8.10;;;4.07;;
31128;SDS011;17777;48.770;8.944;2024-01-30T08:47:12;6.22;;;3.78;;
31128;SDS011;17777;48.770;8.944;2024-01-30T08:49:38;7.75;;;3.70;;
31128;SDS011;17777;48.770;8.944;2024-01-30T08:52:03;5.75;;;3.85;;
31128;SDS011;17777;48.770;8.944;2024-01-30T08:54:29;5.68;;;3.97;;
31128;SDS011;17777;48.770;8.944;2024-01-30T08:56:55;6.95;;;4.57;;
31128;SDS011;17777;48.770;8.944;2024-01-30T08:59:23;6.20;;;3.60;;
31128;SDS011;17777;48.770;8.944;2024-01-30T09:01:49;4.30;;;3.45;;
31128;SDS011;17777;48.770;8.944;2024-01-30T09:04:18;6.80;;;3.92;;
31128;SDS011;17777;48.770;8.944;2024-01-30T09:06:44;6.90;;;4.45;;
31128;SDS011;17777;48.770;8.944;2024-01-30T09:09:10;7.78;;;4.15;;
31128;SDS011;17777;48.770;8.944;2024-01-30T09:11:35;11.27;;;4.50;;
31128;SDS011;17777;48.770;8.944;2024-01-30T09:14:01;6.47;;;4.18;;
31128;SDS011;17777;48.770;8.944;2024-01-30T09:16:27;8.05;;;3.78;;
31128;SDS011;17777;48.770;8.944;2024-01-30T09:18:53;5.45;;;3.65;;
31128;SDS011;17777;48.770;8.944;2024-01-30T09:21:19;4.75;;;3.72;;
31128;SDS011;17777;48.770;8.944;2024-01-30T09:23:45;7.53;;;3.63;;
31128;SDS011;17777;48.770;8.944;2024-01-30T09:26:11;10.07;;;3.35;;
31128;SDS011;17777;48.770;8.944;2024-01-30T09:28:37;7.68;;;4.25;;
31128;SDS011;17777;48.770;8.944;2024-01-30T09:31:03;5.90;;;3.60;;
31128;SDS011;17777;48.770;8.944;2024-01-30T09:33:29;5.10;;;3.60;;
31128;SDS011;17777;48.770;8.944;2024-01-30T09:35:55;6.63;;;4.13;;
31128;SDS011;17777;48.770;8.944;2024-01-30T09:38:21;6.72;;;3.70;;
31128;SDS011;17777;48.770;8.944;2024-01-30T09:40:48;10.40;;;4.45;;
31128;SDS011;17777;48.770;8.944;2024-01-30T09:43:22;4.72;;;3.42;;
31128;SDS011;17777;48.770;8.944;2024-01-30T09:45:52;5.55;;;3.55;;
31128;SDS011;17777;48.770;8.944;2024-01-30T09:48:19;5.07;;;3.50;;
31128;SDS011;17777;48.770;8.944;2024-01-30T09:50:45;6.93;;;3.58;;
31128;SDS011;17777;48.770;8.944;2024-01-30T09:53:11;4.70;;;3.38;;
31128;SDS011;17777;48.770;8.944;2024-01-30T09:55:39;7.10;;;3.83;;
31128;SDS011;17777;48.770;8.944;2024-01-30T09:58:09;8.07;;;3.83;;
31128;SDS011;17777;48.770;8.944;2024-01-30T10:00:37;7.18;;;3.85;;
31128;SDS011;17777;48.770;8.944;2024-01-30T10:03:03;5.80;;;3.80;;
31128;SDS011;17777;48.770;8.944;2024-01-30T10:05:29;6.70;;;3.80;;
31128;SDS011;17777;48.770;8.944;2024-01-30T10:07:59;9.35;;;4.00;;
31128;SDS011;17777;48.770;8.944;2024-01-30T10:10:25;5.78;;;3.83;;
31128;SDS011;17777;48.770;8.944;2024-01-30T10:12:51;7.03;;;4.00;;
31128;SDS011;17777;48.770;8.944;2024-01-30T10:15:17;6.25;;;4.13;;
31128;SDS011;17777;48.770;8.944;2024-01-30T10:17:44;6.97;;;4.07;;
31128;SDS011;17777;48.770;8.944;2024-01-30T10:20:11;5.20;;;3.72;;
31128;SDS011;17777;48.770;8.944;2024-01-30T10:22:37;5.45;;;3.65;;
31128;SDS011;17777;48.770;8.944;2024-01-30T10:25:05;5.68;;;3.70;;
31128;SDS011;17777;48.770;8.944;2024-01-30T10:27:33;6.97;;;3.75;;
31128;SDS011;17777;48.770;8.944;2024-01-30T10:29:58;5.75;;;3.70;;
31128;SDS011;17777;48.770;8.944;2024-01-30T10:32:25;8.00;;;4.10;;
31128;SDS011;17777;48.770;8.944;2024-01-30T10:34:52;6.15;;;3.83;;
31128;SDS011;17777;48.770;8.944;2024-01-30T10:37:18;7.25;;;3.92;;
31128;SDS011;17777;48.770;8.944;2024-01-30T10:39:46;6.85;;;3.80;;
31128;SDS011;17777;48.770;8.944;2024-01-30T10:42:13;8.10;;;3.85;;
31128;SDS011;17777;48.770;8.944;2024-01-30T10:47:48;6.57;;;3.80;;
31128;SDS011;17777;48.770;8.944;2024-01-30T10:50:15;4.70;;;3.38;;
31128;SDS011;17777;48.770;8.944;2024-01-30T10:52:41;4.63;;;3.42;;
31128;SDS011;17777;48.770;8.944;2024-01-30T10:55:08;9.07;;;3.80;;
31128;SDS011;17777;48.770;8.944;2024-01-30T10:57:35;8.10;;;3.40;;
31128;SDS011;17777;48.770;8.944;2024-01-30T11:00:06;5.03;;;3.33;;
31128;SDS011;17777;48.770;8.944;2024-01-30T11:02:44;4.30;;;3.05;;
31128;SDS011;17777;48.770;8.944;2024-01-30T11:05:11;8.77;;;3.97;;
31128;SDS011;17777;48.770;8.944;2024-01-30T11:07:39;10.75;;;3.80;;
31128;SDS011;17777;48.770;8.944;2024-01-30T11:10:07;4.65;;;3.42;;
31128;SDS011;17777;48.770;8.944;2024-01-30T11:12:38;5.70;;;3.47;;
31128;SDS011;17777;48.770;8.944;2024-01-30T11:17:47;4.43;;;2.80;;
31128;SDS011;17777;48.770;8.944;2024-01-30T11:22:58;3.72;;;3.10;;
31128;SDS011;17777;48.770;8.944;2024-01-30T11:25:27;3.90;;;2.85;;
31128;SDS011;17777;48.770;8.944;2024-01-30T11:27:53;4.13;;;2.78;;
31128;SDS011;17777;48.770;8.944;2024-01-30T11:30:27;4.43;;;2.72;;
31128;SDS011;17777;48.770;8.944;2024-01-30T11:35:37;3.50;;;2.33;;
31128;SDS011;17777;48.770;8.944;2024-01-30T11:38:05;4.15;;;2.67;;
31128;SDS011;17777;48.770;8.944;2024-01-30T11:40:33;3.13;;;2.45;;
31128;SDS011;17777;48.770;8.944;2024-01-30T11:43:03;5.05;;;2.25;;
31128;SDS011;17777;48.770;8.944;2024-01-30T11:45:31;3.78;;;2.53;;
31128;SDS011;17777;48.770;8.944;2024-01-30T11:47:58;4.57;;;2.60;;
31128;SDS011;17777;48.770;8.944;2024-01-30T11:50:29;3.75;;;2.20;;
31128;SDS011;17777;48.770;8.944;2024-01-30T11:52:56;4.13;;;2.17;;
31128;SDS011;17777;48.770;8.944;2024-01-30T11:55:23;4.40;;;2.38;;
31128;SDS011;17777;48.770;8.944;2024-01-30T11:57:49;5.28;;;2.15;;
31128;SDS011;17777;48.770;8.944;2024-01-30T12:00:17;5.55;;;2.30;;
31128;SDS011;17777;48.770;8.944;2024-01-30T12:02:44;4.40;;;2.67;;
31128;SDS011;17777;48.770;8.944;2024-01-30T12:05:14;3.88;;;2.42;;
31128;SDS011;17777;48.770;8.944;2024-01-30T12:07:40;7.32;;;2.50;;
31128;SDS011;17777;48.770;8.944;2024-01-30T12:10:10;8.38;;;2.20;;
31128;SDS011;17777;48.770;8.944;2024-01-30T12:12:39;3.42;;;2.40;;
31128;SDS011;17777;48.770;8.944;2024-01-30T12:15:07;5.35;;;2.13;;
31128;SDS011;17777;48.770;8.944;2024-01-30T12:17:34;5.18;;;2.50;;
31128;SDS011;17777;48.770;8.944;2024-01-30T12:20:07;4.63;;;2.40;;
31128;SDS011;17777;48.770;8.944;2024-01-30T12:22:43;4.93;;;2.20;;
31128;SDS011;17777;48.770;8.944;2024-01-30T12:25:11;3.08;;;2.45;;
31128;SDS011;17777;48.770;8.944;2024-01-30T12:27:43;3.80;;;2.58;;
31128;SDS011;17777;48.770;8.944;2024-01-30T12:30:16;2.35;;;2.00;;
31128;SDS011;17777;48.770;8.944;2024-01-30T12:32:44;2.50;;;2.00;;
31128;SDS011;17777;48.770;8.944;2024-01-30T12:35:12;3.53;;;2.22;;
31128;SDS011;17777;48.770;8.944;2024-01-30T12:37:40;5.20;;;2.13;;
31128;SDS011;17777;48.770;8.944;2024-01-30T12:40:09;3.40;;;2.22;;
31128;SDS011;17777;48.770;8.944;2024-01-30T12:42:36;3.05;;;1.90;;
31128;SDS011;17777;48.770;8.944;2024-01-30T12:45:03;3.55;;;1.75;;
31128;SDS011;17777;48.770;8.944;2024-01-30T12:47:29;4.43;;;1.88;;
31128;SDS011;17777;48.770;8.944;2024-01-30T12:49:55;2.83;;;1.50;;
31128;SDS011;17777;48.770;8.944;2024-01-30T12:52:22;2.85;;;1.90;;
31128;SDS011;17777;48.770;8.944;2024-01-30T12:54:48;4.60;;;2.15;;
31128;SDS011;17777;48.770;8.944;2024-01-30T12:57:14;3.55;;;1.85;;
31128;SDS011;17777;48.770;8.944;2024-01-30T12:59:41;4.03;;;1.73;;
31128;SDS011;17777;48.770;8.944;2024-01-30T13:02:08;4.97;;;1.90;;
31128;SDS011;17777;48.770;8.944;2024-01-30T13:04:34;2.65;;;1.80;;
31128;SDS011;17777;48.770;8.944;2024-01-30T13:07:00;4.07;;;1.98;;
31128;SDS011;17777;48.770;8.944;2024-01-30T13:09:27;4.05;;;1.77;;
31128;SDS011;17777;48.770;8.944;2024-01-30T13:11:52;2.03;;;1.52;;
31128;SDS011;17777;48.770;8.944;2024-01-30T13:14:19;2.92;;;1.58;;
31128;SDS011;17777;48.770;8.944;2024-01-30T13:16:44;2.25;;;1.48;;
31128;SDS011;17777;48.770;8.944;2024-01-30T13:19:10;2.58;;;1.67;;
31128;SDS011;17777;48.770;8.944;2024-01-30T13:21:36;2.25;;;1.65;;
31128;SDS011;17777;48.770;8.944;2024-01-30T13:24:02;1.90;;;1.60;;
31128;SDS011;17777;48.770;8.944;2024-01-30T13:26:29;3.63;;;1.55;;
31128;SDS011;17777;48.770;8.944;2024-01-30T13:28:57;1.95;;;1.60;;
31128;SDS011;17777;48.770;8.944;2024-01-30T13:31:23;1.70;;;1.40;;
31128;SDS011;17777;48.770;8.944;2024-01-30T13:33:49;2.70;;;1.70;;
31128;SDS011;17777;48.770;8.944;2024-01-30T13:36:15;3.22;;;1.70;;
31128;SDS011;17777;48.770;8.944;2024-01-30T13:38:40;1.85;;;1.50;;
31128;SDS011;17777;48.770;8.944;2024-01-30T13:41:06;3.13;;;1.45;;
31128;SDS011;17777;48.770;8.944;2024-01-30T13:43:32;1.70;;;1.50;;
31128;SDS011;17777;48.770;8.944;2024-01-30T13:45:58;2.72;;;1.52;;
31128;SDS011;17777;48.770;8.944;2024-01-30T13:48:24;1.83;;;1.40;;
31128;SDS011;17777;48.770;8.944;2024-01-30T13:50:50;3.05;;;1.45;;
31128;SDS011;17777;48.770;8.944;2024-01-30T13:53:16;3.90;;;1.73;;
31128;SDS011;17777;48.770;8.944;2024-01-30T13:55:42;3.42;;;1.70;;
31128;SDS011;17777;48.770;8.944;2024-01-30T13:58:08;3.65;;;1.85;;
31128;SDS011;17777;48.770;8.944;2024-01-30T14:00:34;2.78;;;1.75;;
31128;SDS011;17777;48.770;8.944;2024-01-30T14:03:00;1.88;;;1.58;;
31128;SDS011;17777;48.770;8.944;2024-01-30T14:05:26;3.13;;;1.98;;
31128;SDS011;17777;48.770;8.944;2024-01-30T14:07:54;3.25;;;1.80;;
31128;SDS011;17777;48.770;8.944;2024-01-30T14:10:22;2.80;;;2.03;;
31128;SDS011;17777;48.770;8.944;2024-01-30T14:12:48;3.70;;;2.00;;
31128;SDS011;17777;48.770;8.944;2024-01-30T14:15:14;2.97;;;1.88;;
31128;SDS011;17777;48.770;8.944;2024-01-30T14:17:43;3.20;;;2.20;;
31128;SDS011;17777;48.770;8.944;2024-01-30T14:20:10;2.67;;;1.80;;
31128;SDS011;17777;48.770;8.944;2024-01-30T14:22:36;2.53;;;1.75;;
31128;SDS011;17777;48.770;8.944;2024-01-30T14:25:02;5.20;;;2.33;;
31128;SDS011;17777;48.770;8.944;2024-01-30T14:27:29;4.25;;;1.88;;
31128;SDS011;17777;48.770;8.944;2024-01-30T14:29:56;4.57;;;1.85;;
31128;SDS011;17777;48.770;8.944;2024-01-30T14:32:22;5.78;;;2.13;;
31128;SDS011;17777;48.770;8.944;2024-01-30T14:34:49;2.60;;;1.88;;
31128;SDS011;17777;48.770;8.944;2024-01-30T14:37:18;4.85;;;2.10;;
31128;SDS011;17777;48.770;8.944;2024-01-30T14:39:45;1.92;;;1.70;;
31128;SDS011;17777;48.770;8.944;2024-01-30T14:42:12;2.45;;;1.60;;
31128;SDS011;17777;48.770;8.944;2024-01-30T14:44:39;2.95;;;2.05;;
31128;SDS011;17777;48.770;8.944;2024-01-30T14:47:05;4.85;;;1.95;;
31128;SDS011;17777;48.770;8.944;2024-01-30T14:49:31;5.18;;;1.80;;
31128;SDS011;17777;48.770;8.944;2024-01-30T14:51:57;3.28;;;1.88;;
31128;SDS011;17777;48.770;8.944;2024-01-30T14:54:26;2.83;;;1.67;;
31128;SDS011;17777;48.770;8.944;2024-01-30T14:56:52;2.03;;;1.60;;
31128;SDS011;17777;48.770;8.944;2024-01-30T14:59:18;4.15;;;2.05;;
31128;SDS011;17777;48.770;8.944;2024-01-30T15:01:44;3.22;;;1.80;;
31128;SDS011;17777;48.770;8.944;2024-01-30T15:04:10;6.90;;;1.88;;
31128;SDS011;17777;48.770;8.944;2024-01-30T15:06:37;3.53;;;2.03;;